KBED/BED METAR and TAF weather

Enter ICAO airport designator
Station Type Date Time Source
KBED METAR 2020/08/11 18:51 UTC NOAA

KBED 111851Z 23009KT 10SM CLR 34/19 A2990 RMK AO2 SLP133 T03440194


Station Type Date Time Source
KBED Decoded METAR 2020/08/11 18:51 UTC NOAA

BEDFORD HANSCOM FIELD, MA, United States (KBED) 42-28N 071-18W 50M
Aug 11, 2020 - 02:51 PM EDT / 2020.08.11 1851 UTC
Wind: from the SW (230 degrees) at 10 MPH (9 KT):0
Visibility: 10 mile(s):0
Sky conditions: clear
Temperature: 93.9 F (34.4 C)
Heat index: 97.5 F (36.4 C):1
Dew Point: 66.9 F (19.4 C)
Relative Humidity: 41%
Pressure (altimeter): 29.9 in. Hg (1012 hPa)
ob: KBED 111851Z 23009KT 10SM CLR 34/19 A2990 RMK AO2 SLP133 T03440194
cycle: 19

Station Type Date Time Source
KBED TAF 2020/08/11 18:42 UTC NOAA

TAF KBED 111740Z 1118/1218 24008G15KT P6SM VCTS BKN050CB
FM112300 21008KT P6SM SCT050
FM121300 24005KT P6SM -SHRA BKN035

Example: see airport list